createdAt,value
2017-12-19T00:04:01.726Z,96535.05
2017-12-19T00:06:30.766Z,96537.91
2017-12-19T00:09:03.059Z,96533.34
2017-12-19T00:11:45.979Z,96538.34
2017-12-19T00:14:15.026Z,96540.34
2017-12-19T00:16:51.253Z,96550.41
2017-12-19T00:19:20.316Z,96555.46
2017-12-19T00:21:53.562Z,96550.41
2017-12-19T00:24:35.162Z,96559.47
2017-12-19T00:27:08.515Z,96563.17
2017-12-19T00:29:37.563Z,96556.75
2017-12-19T00:32:09.490Z,96559.91
2017-12-19T00:34:38.760Z,96554.92
2017-12-19T00:37:07.775Z,96555.76
2017-12-19T00:42:13.646Z,96560.06
2017-12-19T00:44:42.686Z,96571.17
2017-12-19T00:49:52.878Z,96565.00
2017-12-19T00:52:31.918Z,96563.94
2017-12-19T00:55:01.016Z,96563.72
2017-12-19T00:57:40.931Z,96570.08
2017-12-19T01:00:09.974Z,96569.38
2017-12-19T01:05:21.957Z,96572.42
2017-12-19T01:07:51.008Z,96571.89
2017-12-19T01:12:55.324Z,96588.14
2017-12-19T01:17:59.550Z,96599.80
2017-12-19T01:20:28.594Z,96605.14
2017-12-19T01:22:57.667Z,96607.62
2017-12-19T01:25:37.176Z,96614.24
2017-12-19T01:28:06.249Z,96617.80
2017-12-19T01:30:35.281Z,96612.72
2017-12-19T01:33:04.338Z,96615.83
2017-12-19T01:35:33.382Z,96620.86
2017-12-19T01:38:02.463Z,96613.26
2017-12-19T01:40:32.478Z,96610.79
2017-12-19T01:43:01.515Z,96614.19
2017-12-19T01:45:48.290Z,96613.20
2017-12-19T01:50:53.486Z,96621.14
2017-12-19T01:53:26.324Z,96621.91
2017-12-19T01:55:55.378Z,96622.86
2017-12-19T01:58:38.842Z,96622.20
2017-12-19T02:01:07.886Z,96626.81
2017-12-19T02:03:40.726Z,96617.34
2017-12-19T02:06:09.817Z,96613.55
2017-12-19T02:08:38.854Z,96613.48
2017-12-19T02:11:07.954Z,96605.02
2017-12-19T02:13:50.030Z,96601.68
2017-12-19T02:18:56.240Z,96596.84
2017-12-19T02:24:03.485Z,96596.81
2017-12-19T02:26:32.521Z,96598.34
2017-12-19T02:29:01.562Z,96597.00
2017-12-19T02:31:36.301Z,96596.66
2017-12-19T02:34:05.354Z,96598.55
2017-12-19T02:36:42.211Z,96598.17
2017-12-19T02:39:22.970Z,96602.81
2017-12-19T02:41:52.023Z,96610.82
2017-12-19T02:44:21.116Z,96609.87
2017-12-19T02:46:50.169Z,96607.95
2017-12-19T02:49:22.361Z,96605.95
2017-12-19T02:51:51.422Z,96603.34
2017-12-19T02:54:20.554Z,96594.52
2017-12-19T03:02:01.226Z,96596.00
2017-12-19T03:04:30.265Z,96605.04
2017-12-19T03:06:59.301Z,96607.28
2017-12-19T03:09:30.322Z,96613.28
2017-12-19T03:11:59.386Z,96608.30
2017-12-19T03:14:28.406Z,96613.41
2017-12-19T03:16:57.450Z,96619.88
2017-12-19T03:19:26.511Z,96628.41
2017-12-19T03:21:55.561Z,96626.34
2017-12-19T03:24:24.615Z,96629.25
2017-12-19T03:26:54.607Z,96627.44
2017-12-19T03:29:23.635Z,96630.02
2017-12-19T03:31:52.702Z,96631.73
2017-12-19T03:34:23.674Z,96634.36
2017-12-19T03:36:52.725Z,96634.08
2017-12-19T03:42:04.585Z,96653.34
2017-12-19T03:44:35.586Z,96656.98
2017-12-19T03:47:04.706Z,96663.96
2017-12-19T03:49:33.747Z,96660.25
2017-12-19T03:52:02.819Z,96659.84
2017-12-19T03:54:31.863Z,96654.64
2017-12-19T03:57:00.956Z,96655.13
2017-12-19T03:59:30.910Z,96650.27
2017-12-19T04:02:00.092Z,96662.47
2017-12-19T04:04:31.035Z,96667.44
2017-12-19T04:07:00.101Z,96670.09
2017-12-19T04:09:30.064Z,96667.03
2017-12-19T04:11:59.109Z,96663.23
2017-12-19T04:17:03.336Z,96662.91
2017-12-19T04:22:35.570Z,96670.61
2017-12-19T04:25:04.618Z,96678.48
2017-12-19T04:27:34.698Z,96680.49
2017-12-19T04:30:03.757Z,96676.70
2017-12-19T04:32:40.134Z,96676.72
2017-12-19T04:35:09.178Z,96671.41
2017-12-19T04:37:40.211Z,96674.52
2017-12-19T04:40:09.257Z,96680.41
2017-12-19T04:42:49.567Z,96683.93
2017-12-19T04:47:56.506Z,96692.58
2017-12-19T04:50:29.638Z,96698.56
2017-12-19T04:52:58.718Z,96705.28
2017-12-19T04:55:49.314Z,96709.67
2017-12-19T04:58:26.364Z,96722.35
2017-12-19T05:00:55.408Z,96715.95
2017-12-19T05:03:24.437Z,96716.72
2017-12-19T05:05:54.438Z,96702.94
2017-12-19T05:08:23.457Z,96703.35
2017-12-19T05:10:52.498Z,96711.95
2017-12-19T05:13:21.537Z,96716.50
2017-12-19T05:15:50.591Z,96720.12
2017-12-19T05:18:19.638Z,96719.78
2017-12-19T05:20:48.686Z,96727.02
2017-12-19T05:23:21.231Z,96724.03
2017-12-19T05:25:50.261Z,96731.87
2017-12-19T05:28:22.970Z,96741.36
2017-12-19T05:30:52.018Z,96734.80
2017-12-19T05:33:22.006Z,96733.59
2017-12-19T05:35:51.062Z,96727.44
2017-12-19T05:38:20.114Z,96732.72
2017-12-19T05:40:49.170Z,96739.04
2017-12-19T05:43:18.211Z,96752.18
2017-12-19T05:45:48.222Z,96745.37
2017-12-19T05:48:21.707Z,96752.41
2017-12-19T05:50:51.024Z,96755.64
2017-12-19T05:53:30.690Z,96772.45
2017-12-19T05:56:00.650Z,96774.08
2017-12-19T06:01:04.958Z,96774.02
2017-12-19T06:08:50.435Z,96807.61
2017-12-19T06:11:45.411Z,96809.66
2017-12-19T06:14:14.442Z,96806.17
2017-12-19T06:16:43.550Z,96809.70
2017-12-19T06:19:16.221Z,96809.66
2017-12-19T06:26:58.725Z,96812.63
2017-12-19T06:29:31.551Z,96816.77
2017-12-19T06:32:00.603Z,96815.13
2017-12-19T06:37:08.807Z,96825.27
2017-12-19T06:42:30.506Z,96829.19
2017-12-19T06:44:59.565Z,96824.14
2017-12-19T06:47:28.630Z,96828.50
2017-12-19T06:49:57.678Z,96834.72
2017-12-19T06:52:27.754Z,96846.97
2017-12-19T06:54:56.846Z,96846.69
2017-12-19T06:57:29.319Z,96851.07
2017-12-19T06:59:58.392Z,96856.64
2017-12-19T07:02:37.259Z,96854.73
2017-12-19T07:05:06.325Z,96856.89
2017-12-19T07:07:47.196Z,96852.44
2017-12-19T07:12:57.604Z,96859.64
2017-12-19T07:15:39.428Z,96866.48
2017-12-19T07:18:08.494Z,96871.89
2017-12-19T07:23:14.666Z,96865.77
2017-12-19T07:25:51.559Z,96867.16
2017-12-19T07:28:21.679Z,96873.50
2017-12-19T07:30:50.764Z,96873.02
2017-12-19T07:33:25.043Z,96872.74
2017-12-19T07:35:58.139Z,96881.70
2017-12-19T07:38:28.210Z,96887.17
2017-12-19T07:40:57.310Z,96886.77
2017-12-19T07:43:26.359Z,96888.48
2017-12-19T07:48:33.303Z,96881.27
2017-12-19T07:51:02.291Z,96882.72
2017-12-19T07:53:31.321Z,96890.64
2017-12-19T07:56:04.118Z,96895.92
2017-12-19T07:58:33.163Z,96895.12
2017-12-19T08:01:15.221Z,96887.20
2017-12-19T08:03:44.302Z,96886.79
2017-12-19T08:06:24.297Z,96890.00
2017-12-19T08:08:57.229Z,96896.92
2017-12-19T08:11:26.293Z,96901.80
2017-12-19T08:14:00.798Z,96894.97
2017-12-19T08:16:33.790Z,96901.47
2017-12-19T08:19:06.282Z,96907.48
2017-12-19T08:21:39.086Z,96910.92
2017-12-19T08:24:11.840Z,96909.44
2017-12-19T08:26:40.884Z,96912.13
2017-12-19T08:31:45.104Z,96913.27
2017-12-19T08:34:31.926Z,96912.66
2017-12-19T08:37:02.000Z,96909.03
2017-12-19T08:39:31.054Z,96903.68
2017-12-19T08:42:31.815Z,96908.50
2017-12-19T08:47:41.055Z,96908.70
2017-12-19T08:50:10.087Z,96904.84
2017-12-19T08:52:39.138Z,96906.28
2017-12-19T08:55:10.078Z,96910.58
2017-12-19T08:57:39.135Z,96912.36
2017-12-19T09:00:10.123Z,96909.08
2017-12-19T09:02:39.168Z,96910.66
2017-12-19T09:05:08.223Z,96908.66
2017-12-19T09:07:37.262Z,96909.13
2017-12-19T09:12:43.163Z,96916.14
2017-12-19T09:15:15.914Z,96921.42
2017-12-19T09:17:45.012Z,96919.56
2017-12-19T09:20:34.975Z,96920.86
2017-12-19T09:25:47.156Z,96935.11
2017-12-19T09:28:19.947Z,96946.30
2017-12-19T09:30:50.023Z,96953.66
2017-12-19T09:36:16.971Z,96965.24
2017-12-19T09:38:46.021Z,96972.39
2017-12-19T09:41:25.239Z,96983.50
2017-12-19T09:46:32.705Z,96993.67
2017-12-19T09:51:40.073Z,96983.27
2017-12-19T09:54:10.054Z,96963.20
2017-12-19T09:56:39.098Z,96964.48
2017-12-19T09:59:10.054Z,96956.12
2017-12-19T10:01:39.103Z,96951.61
2017-12-19T10:04:10.050Z,96966.05
2017-12-19T10:06:39.080Z,96967.87
2017-12-19T10:09:24.818Z,96965.45
2017-12-19T10:12:04.897Z,96958.47
2017-12-19T10:14:33.942Z,96954.64
2017-12-19T10:17:06.856Z,96947.73
2017-12-19T10:19:36.822Z,96948.20
2017-12-19T10:22:05.866Z,96948.80
2017-12-19T10:24:34.917Z,96948.23
2017-12-19T10:27:16.732Z,96947.27
2017-12-19T10:29:45.769Z,96939.88
2017-12-19T10:32:19.654Z,96943.67
2017-12-19T10:34:48.682Z,96934.50
2017-12-19T10:37:31.232Z,96927.22
2017-12-19T10:40:31.596Z,96920.00
2017-12-19T10:45:35.849Z,96927.31
2017-12-19T10:48:26.581Z,96918.19
2017-12-19T10:54:04.972Z,96919.48
2017-12-19T10:56:35.396Z,96921.73
2017-12-19T10:59:05.382Z,96916.36
2017-12-19T11:01:35.515Z,96922.24
2017-12-19T11:04:15.952Z,96919.56
2017-12-19T11:06:45.003Z,96921.95
2017-12-19T11:09:17.901Z,96926.89
2017-12-19T11:11:46.938Z,96935.70
2017-12-19T11:14:19.327Z,96941.95
2017-12-19T11:16:48.369Z,96941.09
2017-12-19T11:22:14.986Z,96929.55
2017-12-19T11:24:44.024Z,96929.11
2017-12-19T11:29:56.268Z,96944.70
2017-12-19T11:32:31.747Z,96958.66
2017-12-19T11:35:07.937Z,96963.39
2017-12-19T11:37:37.873Z,96961.98
2017-12-19T11:40:10.462Z,96971.61
2017-12-19T11:42:40.450Z,96967.63
2017-12-19T11:47:47.955Z,96965.22
2017-12-19T11:50:31.808Z,96961.95
2017-12-19T11:53:00.866Z,96957.69
2017-12-19T11:55:31.079Z,96950.44
2017-12-19T11:58:00.094Z,96937.14
2017-12-19T12:00:31.079Z,96932.88
2017-12-19T12:03:22.098Z,96934.48
2017-12-19T12:06:14.322Z,96921.64
2017-12-19T12:08:48.803Z,96916.58
2017-12-19T12:11:32.166Z,96918.49
2017-12-19T12:14:05.087Z,96925.61
2017-12-19T12:16:34.133Z,96925.94
2017-12-19T12:19:11.579Z,96916.84
2017-12-19T12:21:40.634Z,96914.14
2017-12-19T12:24:27.251Z,96920.52
2017-12-19T12:26:56.323Z,96930.21
2017-12-19T12:29:38.090Z,96922.11
2017-12-19T12:32:29.374Z,96916.92
2017-12-19T12:35:00.319Z,96904.16
2017-12-19T12:37:31.277Z,96885.81
2017-12-19T12:40:04.632Z,96877.92
2017-12-19T12:42:34.695Z,96879.47
2017-12-19T12:45:28.632Z,96871.86
2017-12-19T12:50:34.682Z,96857.94
2017-12-19T12:53:05.082Z,96852.83
2017-12-19T12:55:34.144Z,96861.58
2017-12-19T12:58:03.173Z,96876.97
2017-12-19T13:00:33.151Z,96890.71
2017-12-19T13:03:02.238Z,96908.02
2017-12-19T13:05:36.460Z,96897.85
2017-12-19T13:08:05.810Z,96884.55
2017-12-19T13:10:38.634Z,96876.05
2017-12-19T13:13:07.678Z,96868.61
2017-12-19T13:15:44.336Z,96876.83
2017-12-19T13:18:13.409Z,96892.25
2017-12-19T13:20:42.445Z,96904.91
2017-12-19T13:23:11.528Z,96905.17
2017-12-19T13:25:42.455Z,96905.14
2017-12-19T13:28:11.500Z,96911.67
2017-12-19T13:30:43.627Z,96912.67
2017-12-19T13:33:12.696Z,96914.87
2017-12-19T13:35:53.491Z,96913.98
2017-12-19T13:38:26.320Z,96917.25
2017-12-19T13:40:56.253Z,96922.91
2017-12-19T13:46:03.464Z,96910.34
2017-12-19T13:48:33.430Z,96910.48
2017-12-19T13:51:02.477Z,96914.19
2017-12-19T13:56:09.750Z,96923.61
2017-12-19T13:58:42.638Z,96925.53
2017-12-19T14:01:11.678Z,96928.00
2017-12-19T14:03:44.484Z,96927.09
2017-12-19T14:06:13.530Z,96929.16
2017-12-19T14:08:53.569Z,96935.76
2017-12-19T14:11:26.381Z,96941.75
2017-12-19T14:14:18.310Z,96939.19
2017-12-19T14:19:30.061Z,96947.46
2017-12-19T14:22:01.067Z,96951.08
2017-12-19T14:24:30.119Z,96953.14
2017-12-19T14:27:01.119Z,96943.98
2017-12-19T14:29:45.138Z,96936.23
2017-12-19T14:32:14.207Z,96928.75
2017-12-19T14:35:04.210Z,96935.79
2017-12-19T14:40:09.435Z,96934.02
2017-12-19T14:42:38.475Z,96935.58
2017-12-19T14:45:10.996Z,96926.20
2017-12-19T14:47:40.038Z,96923.19
2017-12-19T14:52:46.250Z,96937.09
2017-12-19T14:55:16.166Z,96928.19
2017-12-19T15:00:22.678Z,96932.16
2017-12-19T15:02:55.521Z,96927.08
2017-12-19T15:05:24.558Z,96924.16
2017-12-19T15:07:57.160Z,96923.61
2017-12-19T15:10:26.198Z,96922.28
2017-12-19T15:16:08.664Z,96915.36
2017-12-19T15:18:39.642Z,96923.69
2017-12-19T15:21:09.602Z,96944.53
2017-12-19T15:23:38.654Z,96949.76
2017-12-19T15:26:08.632Z,96945.55
2017-12-19T15:28:41.462Z,96944.00
2017-12-19T15:34:06.547Z,96945.69
2017-12-19T15:36:48.535Z,96951.78
2017-12-19T15:39:17.561Z,96953.05
2017-12-19T15:41:54.606Z,96939.17
2017-12-19T15:47:02.952Z,96925.91
2017-12-19T15:49:33.665Z,96921.87
2017-12-19T15:52:32.763Z,96924.82
2017-12-19T15:55:01.810Z,96933.84
2017-12-19T15:57:32.794Z,96930.49
2017-12-19T16:00:05.170Z,96931.04
2017-12-19T16:02:34.225Z,96928.30
2017-12-19T16:05:11.403Z,96934.97
2017-12-19T16:07:40.454Z,96948.20
2017-12-19T16:10:13.091Z,96953.83
2017-12-19T16:12:44.131Z,96963.19
2017-12-19T16:15:18.719Z,96968.86
2017-12-19T16:17:47.754Z,96985.58
2017-12-19T16:20:18.813Z,96991.59
2017-12-19T16:22:48.923Z,96984.14
2017-12-19T16:25:18.934Z,96990.78
2017-12-19T16:27:48.891Z,96999.17
2017-12-19T16:30:25.747Z,97000.53
2017-12-19T16:32:54.883Z,96988.18
2017-12-19T16:35:27.253Z,96991.98
2017-12-19T16:38:01.155Z,96991.11
2017-12-19T16:40:32.229Z,96994.86
2017-12-19T16:43:32.390Z,96990.66
2017-12-19T16:46:25.816Z,96975.50
2017-12-19T16:48:54.870Z,96974.62
2017-12-19T16:51:27.729Z,96961.86
2017-12-19T16:54:00.494Z,96953.57
2017-12-19T16:59:31.897Z,96976.52
2017-12-19T17:02:19.802Z,96974.78
2017-12-19T17:04:49.832Z,96979.53
2017-12-19T17:10:09.978Z,96974.52
2017-12-19T17:12:39.003Z,96969.14
2017-12-19T17:15:08.074Z,96987.08
2017-12-19T17:17:50.124Z,96992.08
2017-12-19T17:20:32.339Z,96999.83
2017-12-19T17:23:01.483Z,96997.33
2017-12-19T17:25:54.626Z,97000.28
2017-12-19T17:30:59.879Z,96995.10
2017-12-19T17:36:08.279Z,96999.46
2017-12-19T17:44:09.187Z,97003.53
2017-12-19T17:49:15.361Z,97010.28
2017-12-19T17:54:21.499Z,97009.87
2017-12-19T17:56:54.274Z,97008.75
2017-12-19T18:02:02.512Z,97007.56
2017-12-19T18:04:53.394Z,97002.72
2017-12-19T18:07:31.575Z,97006.41
2017-12-19T18:10:00.642Z,97016.22
2017-12-19T18:15:12.075Z,97024.47
2017-12-19T18:17:41.109Z,97022.56
2017-12-19T18:20:10.142Z,97020.77
2017-12-19T18:22:39.203Z,97016.39
2017-12-19T18:25:08.308Z,97016.06
2017-12-19T18:30:22.547Z,97025.55
2017-12-19T18:32:55.366Z,97022.91
2017-12-19T18:35:28.184Z,97020.64
2017-12-19T18:38:01.035Z,97025.44
2017-12-19T18:40:30.094Z,97025.66
2017-12-19T18:43:03.660Z,97032.38
2017-12-19T18:45:32.702Z,97034.64
2017-12-19T18:50:50.944Z,97018.41
2017-12-19T18:53:20.660Z,97020.15
2017-12-19T18:56:00.631Z,97016.92
2017-12-19T18:58:29.691Z,97016.86
2017-12-19T19:01:02.453Z,97017.22
2017-12-19T19:03:31.495Z,97024.56
2017-12-19T19:06:10.186Z,97026.88
2017-12-19T19:11:20.184Z,97026.50
2017-12-19T19:13:52.642Z,97015.11
2017-12-19T19:16:21.713Z,97006.95
2017-12-19T19:19:18.190Z,97006.44
2017-12-19T19:21:47.238Z,97001.23
2017-12-19T19:24:19.760Z,96992.83
2017-12-19T19:26:48.811Z,96992.58
2017-12-19T19:29:21.578Z,96999.77
2017-12-19T19:34:28.854Z,97012.43
2017-12-19T19:36:57.962Z,97015.06
2017-12-19T19:39:26.958Z,97008.10
2017-12-19T19:44:37.182Z,97001.16
2017-12-19T19:49:45.404Z,96999.09
2017-12-19T19:52:18.259Z,97002.33
2017-12-19T19:54:47.388Z,96998.17
2017-12-19T19:57:29.018Z,97001.70
2017-12-19T19:59:58.098Z,97002.25
2017-12-19T20:02:37.983Z,96999.11
2017-12-19T20:07:44.190Z,97002.50
2017-12-19T20:12:51.454Z,97007.48
2017-12-19T20:15:22.410Z,97006.92
2017-12-19T20:17:51.453Z,97008.64
2017-12-19T20:20:22.465Z,97003.91
2017-12-19T20:22:51.686Z,97004.62
2017-12-19T20:25:20.768Z,97010.47
2017-12-19T20:27:49.811Z,97010.11
2017-12-19T20:30:18.882Z,97008.76
2017-12-19T20:35:23.240Z,97007.27
2017-12-19T20:37:52.306Z,97000.41
2017-12-19T20:42:58.610Z,97009.14
2017-12-19T20:45:30.642Z,97007.45
2017-12-19T20:48:00.903Z,97000.47
2017-12-19T20:50:29.982Z,97009.00
2017-12-19T20:52:59.022Z,97012.72
2017-12-19T20:55:28.136Z,97006.98
2017-12-19T20:57:57.196Z,97006.33
2017-12-19T21:00:26.344Z,97003.71
2017-12-19T21:02:56.536Z,96998.58
2017-12-19T21:05:25.596Z,97004.42
2017-12-19T21:07:54.675Z,96997.43
2017-12-19T21:10:23.751Z,97002.08
2017-12-19T21:12:53.090Z,97002.47
2017-12-19T21:15:22.130Z,97005.03
2017-12-19T21:18:04.909Z,97014.11
2017-12-19T21:20:33.929Z,97012.87
2017-12-19T21:23:03.396Z,97014.49
2017-12-19T21:25:32.507Z,97007.81
2017-12-19T21:28:05.211Z,97000.72
2017-12-19T21:30:39.912Z,96999.26
2017-12-19T21:33:14.308Z,96995.84
2017-12-19T21:35:47.338Z,96993.64
2017-12-19T21:38:16.382Z,96998.17
2017-12-19T21:40:55.901Z,96991.25
2017-12-19T21:43:24.959Z,96992.03
2017-12-19T21:45:56.008Z,96989.41
2017-12-19T21:48:28.699Z,96984.50
2017-12-19T21:50:58.671Z,96982.95
2017-12-19T21:53:28.624Z,96981.11
2017-12-19T21:56:04.906Z,96981.02
2017-12-19T21:58:34.918Z,96986.05
2017-12-19T22:01:07.736Z,96995.88
2017-12-19T22:03:40.598Z,96992.31
2017-12-19T22:06:09.679Z,96998.83
2017-12-19T22:08:40.615Z,96996.78
2017-12-19T22:11:09.659Z,96994.12
2017-12-19T22:16:15.543Z,96988.95
2017-12-19T22:18:45.489Z,96985.72
2017-12-19T22:21:14.535Z,96987.79
2017-12-19T22:23:43.579Z,96991.37
2017-12-19T22:26:12.617Z,96992.80
2017-12-19T22:28:41.698Z,96995.75
2017-12-19T22:31:10.770Z,96995.02
2017-12-19T22:33:39.843Z,96996.67
2017-12-19T22:36:17.157Z,96989.73
2017-12-19T22:38:46.193Z,96992.23
2017-12-19T22:41:19.071Z,96994.64
2017-12-19T22:46:39.464Z,96999.33
2017-12-19T22:49:21.491Z,96998.56
2017-12-19T22:51:51.391Z,96996.50
2017-12-19T22:56:56.629Z,96999.97
2017-12-19T22:59:25.683Z,97006.50
2017-12-19T23:01:54.723Z,97004.02
2017-12-19T23:04:23.773Z,97006.98
2017-12-19T23:06:52.822Z,96998.62
2017-12-19T23:11:59.176Z,96997.21
2017-12-19T23:14:30.180Z,96993.09
2017-12-19T23:16:59.254Z,96991.53
2017-12-19T23:19:28.290Z,96998.90
2017-12-19T23:21:57.322Z,96998.02
2017-12-19T23:24:34.981Z,97001.34
2017-12-19T23:29:41.206Z,97000.29
2017-12-19T23:32:10.253Z,97014.20
2017-12-19T23:34:40.298Z,97014.11
2017-12-19T23:37:09.378Z,97008.17
2017-12-19T23:39:38.541Z,97003.25
2017-12-19T23:42:12.694Z,97010.78
2017-12-19T23:44:41.734Z,97010.85
2017-12-19T23:47:10.847Z,97004.77
2017-12-19T23:49:39.906Z,97003.33
2017-12-19T23:52:09.930Z,97001.41
2017-12-19T23:54:40.976Z,97007.63
2017-12-19T23:57:15.902Z,97000.41
2017-12-19T23:59:50.056Z,97007.08
